North Battleford, North Battleford Airport (CYQW)

NameNorth Battleford Airport
CityNorth Battleford
CountryCanada
ICAOCYQW
IATAYQW
Altitude548 m
CoordinatesGoogle Map
Live Air TrafficLiveATC.net
METARCYQW 201300Z AUTO 27003KT 9SM CLR M05/M07 A3014 RMK SLP236
2019-03-20 13:00:00 Wind: West (270°) 1.54 m/s - Visibility: 14484.06 m - Temperature: -5 °C - Dew point: -7 °C - Humidity: 86.1% - Pressure: 1020.66 hPa
Statistics

The table below shows the detailed information of all flights to/from North Battleford, North Battleford Airport (CYQW).